Time;durP1;ratioP1;P1;durP2;ratioP2;P2;SDS_P1;SDS_P2;PMS_P1;PMS_P2;Temp;Humidity;BMP_temperature;BMP_pressure;BME280_temperature;BME280_humidity;BME280_pressure;Samples;Min_cycle;Max_cycle;Signal;HPM_P1;HPM_P2
2021/06/11 00:02:14;;;;;;;10.95;7.63;;;11.30;99.90;;;;;;5051624;28;20057;-76
2021/06/11 00:04:40;;;;;;;13.90;8.32;;;11.20;99.90;;;;;;5049817;28;20490;-76
2021/06/11 00:07:06;;;;;;;12.43;8.98;;;11.20;99.90;;;;;;5052515;28;20068;-77
2021/06/11 00:09:31;;;;;;;12.75;8.93;;;11.30;99.90;;;;;;5052771;28;20021;-76
2021/06/11 00:11:57;;;;;;;7.50;6.65;;;11.20;99.90;;;;;;5051353;28;20041;-77
2021/06/11 00:14:24;;;;;;;7.75;5.65;;;11.20;99.90;;;;;;5043298;28;20018;-76
2021/06/11 00:16:49;;;;;;;9.73;6.35;;;11.00;99.90;;;;;;5031529;28;20083;-76
2021/06/11 00:19:15;;;;;;;7.07;6.10;;;11.00;99.90;;;;;;5031401;28;20494;-76
2021/06/11 00:21:41;;;;;;;6.97;6.10;;;10.90;99.90;;;;;;5037013;28;20109;-77
2021/06/11 00:24:07;;;;;;;8.77;7.78;;;10.90;99.90;;;;;;5045146;28;20036;-77
2021/06/11 00:26:32;;;;;;;12.15;6.57;;;10.90;99.90;;;;;;5051449;28;20504;-76
2021/06/11 00:28:58;;;;;;;10.13;6.18;;;10.80;99.90;;;;;;5050989;28;20056;-76
2021/06/11 00:31:24;;;;;;;8.52;6.32;;;10.80;99.90;;;;;;5052403;28;20397;-76
2021/06/11 00:33:50;;;;;;;10.48;7.57;;;10.80;99.90;;;;;;5052593;28;20047;-76
2021/06/11 00:36:16;;;;;;;11.50;7.85;;;10.80;99.90;;;;;;5051324;28;20159;-76
2021/06/11 00:38:41;;;;;;;14.95;8.80;;;10.80;99.90;;;;;;5051288;28;20457;-76
2021/06/11 00:41:07;;;;;;;15.30;8.57;;;10.80;99.90;;;;;;5051142;28;20025;-76
2021/06/11 00:43:33;;;;;;;13.25;8.98;;;10.80;99.90;;;;;;5052215;28;20027;-76
2021/06/11 00:45:58;;;;;;;13.85;9.30;;;10.80;99.90;;;;;;5050940;28;20033;-77
2021/06/11 00:48:24;;;;;;;19.05;10.98;;;10.80;99.90;;;;;;5051266;28;20036;-77
2021/06/11 00:50:50;;;;;;;18.23;9.40;;;10.80;99.90;;;;;;5051089;28;20549;-76
2021/06/11 00:53:16;;;;;;;10.77;7.30;;;10.70;99.90;;;;;;5052143;28;20057;-76
2021/06/11 00:55:45;;;;;;;9.90;7.28;;;10.70;99.90;;;;;;5052360;28;20463;-76
2021/06/11 00:58:13;;;;;;;13.23;7.97;;;10.70;99.90;;;;;;5051065;28;20045;-76
2021/06/11 01:00:39;;;;;;;7.93;6.13;;;10.70;99.90;;;;;;5051493;28;20055;-76
2021/06/11 01:03:06;;;;;;;7.85;6.95;;;10.60;99.90;;;;;;5054791;28;20020;-76
2021/06/11 01:05:32;;;;;;;7.32;6.50;;;10.60;99.90;;;;;;5054804;28;20028;-76
2021/06/11 01:07:58;;;;;;;8.38;5.55;;;10.50;99.90;;;;;;5055699;28;20021;-76
2021/06/11 01:10:25;;;;;;;9.85;7.18;;;10.50;99.90;;;;;;5055979;28;20036;-76
2021/06/11 01:12:52;;;;;;;16.95;8.70;;;10.40;99.90;;;;;;5054551;28;20397;-76
2021/06/11 01:15:19;;;;;;;18.38;9.52;;;10.40;99.90;;;;;;5054654;28;20098;-76
2021/06/11 01:17:44;;;;;;;16.70;9.68;;;10.30;99.90;;;;;;5054587;28;20543;-76
2021/06/11 01:20:12;;;;;;;17.17;8.75;;;10.30;99.90;;;;;;5054218;28;20087;-76
2021/06/11 01:23:05;;;;;;;13.82;8.60;;;10.30;99.90;;;;;;5054554;28;20013;-77
2021/06/11 01:25:34;;;;;;;;;;;10.40;99.90;;;;;;5056145;28;20079;-76
2021/06/11 01:28:02;;;;;;;10.93;7.78;;;10.30;99.90;;;;;;5054390;28;20015;-76
2021/06/11 01:30:30;;;;;;;13.35;8.77;;;10.30;99.90;;;;;;5055672;28;20021;-76
2021/06/11 01:32:57;;;;;;;14.43;8.57;;;10.30;99.90;;;;;;5055462;28;20029;-76
2021/06/11 01:35:39;;;;;;;11.80;7.88;;;10.20;99.90;;;;;;5055291;28;20048;-77
2021/06/11 01:38:06;;;;;;;10.00;7.30;;;10.20;99.90;;;;;;5055468;28;20040;-76
2021/06/11 01:40:34;;;;;;;10.68;7.82;;;10.10;99.90;;;;;;5055425;28;20068;-76
2021/06/11 01:43:01;;;;;;;15.88;8.77;;;10.10;99.90;;;;;;5055008;28;20470;-76
2021/06/11 01:45:28;;;;;;;14.05;8.73;;;10.10;99.90;;;;;;5054220;28;20132;-76
2021/06/11 01:47:55;;;;;;;20.15;11.90;;;10.10;99.90;;;;;;5055259;28;20071;-76
2021/06/11 01:50:33;;;;;;;13.82;8.27;;;10.00;99.90;;;;;;5053746;28;20044;-76
2021/06/11 01:53:01;;;;;;;11.15;7.30;;;10.00;99.90;;;;;;5053808;28;20482;-76
2021/06/11 01:55:29;;;;;;;11.38;8.20;;;10.00;99.90;;;;;;5053827;28;20070;-76
2021/06/11 01:57:56;;;;;;;12.38;7.10;;;10.00;99.90;;;;;;5053803;28;20025;-76
2021/06/11 02:00:23;;;;;;;13.15;9.02;;;9.90;99.90;;;;;;5053813;28;20433;-76
2021/06/11 02:02:50;;;;;;;13.95;9.43;;;9.90;99.90;;;;;;5054721;28;20079;-76
2021/06/11 02:05:16;;;;;;;15.93;8.45;;;9.90;99.90;;;;;;5054942;28;20501;-76
2021/06/11 02:07:44;;;;;;;17.83;9.70;;;9.90;99.90;;;;;;5053673;28;20013;-76
2021/06/11 02:10:11;;;;;;;13.30;8.85;;;9.90;99.90;;;;;;5053358;28;20083;-76
2021/06/11 02:12:38;;;;;;;15.82;10.27;;;9.90;99.90;;;;;;5054738;28;20036;-76
2021/06/11 02:15:08;;;;;;;28.58;13.95;;;10.00;99.90;;;;;;5053097;28;20056;-76
2021/06/11 02:17:38;;;;;;;27.50;11.88;;;9.90;99.90;;;;;;5054233;28;20049;-76
2021/06/11 02:20:07;;;;;;;21.75;11.68;;;10.00;99.90;;;;;;5054029;28;20363;-76
2021/06/11 02:22:35;;;;;;;15.43;10.82;;;9.90;99.90;;;;;;5051805;28;20116;-76
2021/06/11 02:25:02;;;;;;;20.88;9.82;;;9.90;99.90;;;;;;5054298;28;20112;-76
2021/06/11 02:27:27;;;;;;;20.90;10.93;;;9.90;99.90;;;;;;5052715;28;20025;-77
2021/06/11 02:29:53;;;;;;;12.32;8.70;;;9.90;99.90;;;;;;5052695;28;20036;-76
2021/06/11 02:32:19;;;;;;;13.88;7.38;;;9.80;99.90;;;;;;5053222;28;20044;-77
2021/06/11 02:34:44;;;;;;;8.43;6.18;;;9.80;99.90;;;;;;5052986;28;20032;-76
2021/06/11 02:37:10;;;;;;;13.82;6.38;;;9.70;99.90;;;;;;5053103;28;20021;-77
2021/06/11 02:39:36;;;;;;;10.93;6.18;;;9.70;99.90;;;;;;5054200;28;20099;-76
2021/06/11 02:42:06;;;;;;;11.00;6.15;;;9.70;99.90;;;;;;5054134;28;20021;-76
2021/06/11 02:44:35;;;;;;;8.85;5.93;;;9.70;99.90;;;;;;5052989;28;20028;-76
2021/06/11 02:47:21;;;;;;;9.10;5.40;;;9.70;99.90;;;;;;5054070;28;20142;-76
2021/06/11 02:49:54;;;;;;;11.55;6.03;;;9.70;99.90;;;;;;5052746;28;20024;-76
2021/06/11 02:52:22;;;;;;;12.75;6.78;;;9.80;99.90;;;;;;5054025;28;20040;-76
2021/06/11 02:54:54;;;;;;;9.20;7.00;;;9.80;99.90;;;;;;5052617;28;20021;-76
2021/06/11 02:57:38;;;;;;;6.93;4.80;;;9.80;99.90;;;;;;5052580;28;20021;-76
2021/06/11 03:00:07;;;;;;;7.40;5.47;;;9.80;99.90;;;;;;5053446;28;20099;-76
2021/06/11 03:02:38;;;;;;;6.32;4.70;;;9.80;99.90;;;;;;5053945;28;20024;-76
2021/06/11 03:05:05;;;;;;;6.32;4.55;;;9.80;99.90;;;;;;5052345;28;20501;-76
2021/06/11 03:07:34;;;;;;;9.57;6.43;;;9.70;99.90;;;;;;5052544;28;20017;-76
2021/06/11 03:10:03;;;;;;;5.57;3.88;;;9.70;99.90;;;;;;5052290;28;20110;-76
2021/06/11 03:12:32;;;;;;;3.83;3.42;;;9.70;99.90;;;;;;5053409;28;20032;-76
2021/06/11 03:14:58;;;;;;;4.18;3.72;;;9.70;99.90;;;;;;5053561;28;20025;-76
2021/06/11 03:17:33;;;;;;;4.32;3.83;;;9.70;99.90;;;;;;5053560;28;20032;-76
2021/06/11 03:20:06;;;;;;;5.35;4.85;;;9.70;99.90;;;;;;5052163;28;20104;-76
2021/06/11 03:22:38;;;;;;;4.88;3.85;;;9.80;99.90;;;;;;5052213;28;20033;-76
2021/06/11 03:25:22;;;;;;;4.13;3.78;;;10.00;99.90;;;;;;5052746;28;20404;-76
2021/06/11 03:28:10;;;;;;;4.40;4.00;;;10.20;99.90;;;;;;5051938;28;20021;-75
2021/06/11 03:30:37;;;;;;;9.50;5.43;;;10.40;99.90;;;;;;5044574;28;20486;-76
2021/06/11 03:33:13;;;;;;;7.43;5.18;;;10.70;99.90;;;;;;5053187;28;20126;-76
2021/06/11 03:35:48;;;;;;;6.75;5.25;;;10.80;99.90;;;;;;5053350;28;20479;-76
2021/06/11 03:38:19;;;;;;;8.50;6.50;;;11.00;99.90;;;;;;5053339;28;20056;-76
2021/06/11 03:40:47;;;;;;;8.25;6.25;;;11.30;99.90;;;;;;5051778;28;20025;-76
2021/06/11 03:43:14;;;;;;;11.80;6.95;;;11.70;99.90;;;;;;5046142;28;20426;-76
2021/06/11 03:45:41;;;;;;;11.88;6.82;;;11.80;98.70;;;;;;5033543;28;20079;-76
2021/06/11 03:48:10;;;;;;;12.10;6.03;;;12.00;98.90;;;;;;5031861;28;20045;-76
2021/06/11 03:50:37;;;;;;;13.73;7.00;;;12.20;99.10;;;;;;5042660;28;20017;-76
2021/06/11 03:53:05;;;;;;;7.35;6.38;;;12.40;95.90;;;;;;5052833;28;20060;-77
2021/06/11 03:55:36;;;;;;;11.55;6.75;;;12.60;96.70;;;;;;5051700;28;20013;-76
2021/06/11 03:58:07;;;;;;;11.55;7.13;;;12.90;94.70;;;;;;5052696;28;20470;-76
2021/06/11 04:00:34;;;;;;;9.18;5.82;;;13.10;93.30;;;;;;5051199;28;20025;-76
2021/06/11 04:03:00;;;;;;;8.52;6.10;;;13.30;92.60;;;;;;5051452;28;20021;-76
2021/06/11 04:05:26;;;;;;;13.15;8.48;;;13.50;90.60;;;;;;5052870;28;20025;-76
2021/06/11 04:07:57;;;;;;;12.45;6.80;;;13.70;91.50;;;;;;5051438;28;20388;-76
2021/06/11 04:10:30;;;;;;;12.32;7.70;;;13.80;92.00;;;;;;5038502;28;20036;-76
2021/06/11 04:13:01;;;;;;;12.40;8.10;;;14.00;92.00;;;;;;5036695;28;20059;-76
2021/06/11 04:15:32;;;;;;;18.92;9.35;;;14.20;92.80;;;;;;5031572;28;20027;-76
2021/06/11 04:18:08;;;;;;;12.77;9.13;;;14.30;92.60;;;;;;5031500;28;20032;-76
2021/06/11 04:20:34;;;;;;;16.75;9.65;;;14.50;92.20;;;;;;5031610;28;20037;-76
2021/06/11 04:23:02;;;;;;;19.33;10.88;;;14.70;91.50;;;;;;5032755;28;20393;-76
2021/06/11 04:25:30;;;;;;;17.85;11.40;;;14.70;90.50;;;;;;5032617;28;20540;-76
2021/06/11 04:27:58;;;;;;;25.98;14.57;;;14.80;91.50;;;;;;5032743;28;20053;-76
2021/06/11 04:30:24;;;;;;;42.35;27.30;;;14.80;92.40;;;;;;5048894;28;20057;-75
2021/06/11 04:32:51;;;;;;;72.78;41.58;;;14.80;92.80;;;;;;5046779;28;20039;-75
2021/06/11 04:35:27;;;;;;;91.50;52.95;;;14.90;92.90;;;;;;5033020;28;20079;-75
2021/06/11 04:37:56;;;;;;;35.63;21.33;;;14.90;93.00;;;;;;5036590;28;20026;-76
2021/06/11 04:40:22;;;;;;;23.98;15.35;;;14.90;93.10;;;;;;5038044;28;20029;-76
2021/06/11 04:42:47;;;;;;;18.65;11.43;;;15.00;94.90;;;;;;5054601;28;20025;-76
2021/06/11 04:45:14;;;;;;;16.08;10.75;;;15.10;94.70;;;;;;5055154;28;20068;-75
2021/06/11 04:47:40;;;;;;;14.80;10.55;;;15.00;93.60;;;;;;5055090;28;20025;-76
2021/06/11 04:50:06;;;;;;;15.55;10.18;;;15.20;93.60;;;;;;5045693;28;20364;-75
2021/06/11 04:52:32;;;;;;;20.67;11.02;;;15.20;93.60;;;;;;5050348;28;20107;-75
2021/06/11 04:54:57;;;;;;;15.02;11.13;;;15.30;94.60;;;;;;5054527;28;20108;-75
2021/06/11 04:57:23;;;;;;;15.77;11.38;;;15.40;92.60;;;;;;5055411;28;20025;-76
2021/06/11 04:59:49;;;;;;;45.97;24.95;;;15.40;94.30;;;;;;5038158;28;20075;-75
2021/06/11 05:02:14;;;;;;;54.13;29.95;;;15.50;93.60;;;;;;5040240;28;20018;-75
2021/06/11 05:04:40;;;;;;;60.35;33.72;;;15.60;94.90;;;;;;5035502;28;20540;-76
2021/06/11 05:07:06;;;;;;;24.38;16.13;;;15.80;95.30;;;;;;5034938;28;20036;-75
2021/06/11 05:09:32;;;;;;;18.88;11.88;;;15.80;95.00;;;;;;5034810;28;20116;-76
2021/06/11 05:11:57;;;;;;;21.52;13.43;;;15.90;96.00;;;;;;5049416;28;20037;-75
2021/06/11 05:14:23;;;;;;;19.92;11.98;;;16.00;95.50;;;;;;5034730;28;20503;-76
2021/06/11 05:16:49;;;;;;;19.38;12.63;;;15.80;91.70;;;;;;5034676;28;20029;-75
2021/06/11 05:19:14;;;;;;;19.48;10.70;;;15.80;94.00;;;;;;5035951;28;20481;-75
2021/06/11 05:21:40;;;;;;;17.08;11.10;;;15.80;93.10;;;;;;5053608;28;20031;-76
2021/06/11 05:24:06;;;;;;;18.02;11.45;;;15.90;94.10;;;;;;5048910;28;20130;-75
2021/06/11 05:26:32;;;;;;;15.55;10.48;;;16.00;93.80;;;;;;5034562;28;20017;-75
2021/06/11 05:28:58;;;;;;;40.47;24.00;;;16.00;94.30;;;;;;5051404;28;20389;-75
2021/06/11 05:31:24;;;;;;;37.92;20.67;;;16.10;95.00;;;;;;5055581;28;20390;-75
2021/06/11 05:33:50;;;;;;;28.92;15.45;;;16.30;94.30;;;;;;5055088;28;20080;-75
2021/06/11 05:36:15;;;;;;;19.15;10.55;;;16.50;94.30;;;;;;5054272;28;20021;-75
2021/06/11 05:38:42;;;;;;;16.48;10.60;;;16.60;92.50;;;;;;5054877;28;20561;-75
2021/06/11 05:41:08;;;;;;;15.68;10.45;;;16.80;91.00;;;;;;5053958;28;20049;-75
2021/06/11 05:43:34;;;;;;;11.65;9.07;;;16.90;89.20;;;;;;5053423;28;20056;-76
2021/06/11 05:46:00;;;;;;;17.17;10.85;;;17.10;87.20;;;;;;5052702;28;20065;-75
2021/06/11 05:48:26;;;;;;;13.13;9.95;;;17.20;86.00;;;;;;5052724;28;20028;-75
2021/06/11 05:50:52;;;;;;;15.88;10.55;;;17.30;86.90;;;;;;5052914;28;20107;-75
2021/06/11 05:53:22;;;;;;;16.98;10.30;;;17.40;85.00;;;;;;5054603;28;20040;-76
2021/06/11 05:55:50;;;;;;;13.23;8.68;;;17.50;85.50;;;;;;5052967;28;20029;-75
2021/06/11 05:58:15;;;;;;;11.05;8.48;;;17.60;84.00;;;;;;5054208;28;20021;-76
2021/06/11 06:00:41;;;;;;;11.00;8.75;;;17.60;84.90;;;;;;5053061;28;20555;-75
2021/06/11 06:03:07;;;;;;;13.38;8.63;;;17.70;85.30;;;;;;5055094;28;20017;-75
2021/06/11 06:05:33;;;;;;;14.10;9.02;;;17.90;84.10;;;;;;5053755;28;20029;-75
2021/06/11 06:07:59;;;;;;;12.55;9.45;;;18.10;84.60;;;;;;5053680;28;20028;-75
2021/06/11 06:10:24;;;;;;;11.98;8.57;;;18.30;82.80;;;;;;5050510;28;20390;-75
2021/06/11 06:12:50;;;;;;;10.40;8.45;;;18.30;82.10;;;;;;5034865;28;20498;-75
2021/06/11 06:15:16;;;;;;;10.20;8.52;;;18.40;82.10;;;;;;5034802;28;20116;-75
2021/06/11 06:17:41;;;;;;;12.48;9.10;;;18.50;82.00;;;;;;5034855;28;20540;-75
2021/06/11 06:20:09;;;;;;;12.45;8.55;;;18.70;82.20;;;;;;5033331;28;20025;-75
2021/06/11 06:22:35;;;;;;;14.75;9.23;;;18.80;80.80;;;;;;5034794;28;20091;-75
2021/06/11 06:25:01;;;;;;;12.77;8.68;;;19.00;79.60;;;;;;5034707;28;20482;-75
2021/06/11 06:27:27;;;;;;;13.75;9.73;;;19.20;81.10;;;;;;5033233;28;20017;-75
2021/06/11 06:29:52;;;;;;;22.98;12.35;;;19.40;80.20;;;;;;5033244;28;20044;-75
2021/06/11 06:32:18;;;;;;;9.82;8.68;;;19.50;76.30;;;;;;5036014;28;20117;-75
2021/06/11 06:34:44;;;;;;;13.93;9.35;;;19.60;75.80;;;;;;5054363;28;20025;-75
2021/06/11 06:37:11;;;;;;;16.95;10.43;;;19.70;77.10;;;;;;5054366;28;20061;-75
2021/06/11 06:39:40;;;;;;;10.40;7.78;;;19.80;73.90;;;;;;5054306;28;20108;-75
2021/06/11 06:42:06;;;;;;;7.78;6.72;;;19.90;73.00;;;;;;5054221;28;20071;-75
2021/06/11 06:44:33;;;;;;;11.75;8.18;;;19.90;71.40;;;;;;5054242;28;20123;-75
2021/06/11 06:46:59;;;;;;;8.98;7.43;;;20.10;75.50;;;;;;5052715;28;20051;-75
2021/06/11 06:49:25;;;;;;;9.95;7.70;;;20.20;72.30;;;;;;5053919;28;20066;-75
2021/06/11 06:51:50;;;;;;;13.38;8.73;;;20.40;71.70;;;;;;5053995;28;20025;-75
2021/06/11 06:54:16;;;;;;;8.52;7.00;;;20.60;72.40;;;;;;5053778;28;20490;-75
2021/06/11 06:56:42;;;;;;;7.82;6.78;;;20.80;74.50;;;;;;5051635;28;20021;-76
2021/06/11 06:59:07;;;;;;;11.30;8.73;;;21.00;70.60;;;;;;5051219;28;20474;-75
2021/06/11 07:01:33;;;;;;;11.88;8.00;;;21.20;71.40;;;;;;5052654;28;20386;-75
2021/06/11 07:04:01;;;;;;;7.18;6.22;;;21.30;70.20;;;;;;5051960;28;20028;-75
2021/06/11 07:06:27;;;;;;;8.75;6.38;;;21.50;66.40;;;;;;5053925;28;20048;-75
2021/06/11 07:08:53;;;;;;;6.72;5.50;;;21.70;68.70;;;;;;5053715;28;20060;-75
2021/06/11 07:11:19;;;;;;;10.00;7.00;;;21.90;67.30;;;;;;5053433;28;20029;-75
2021/06/11 07:13:46;;;;;;;8.27;6.05;;;22.10;67.80;;;;;;5052206;28;20029;-75
2021/06/11 07:16:11;;;;;;;5.60;5.10;;;22.20;68.00;;;;;;5053664;28;20017;-76
2021/06/11 07:18:38;;;;;;;7.25;5.78;;;22.40;65.10;;;;;;5052355;28;20025;-76
2021/06/11 07:21:05;;;;;;;6.90;5.95;;;22.50;61.90;;;;;;5053089;28;20103;-75
2021/06/11 07:23:32;;;;;;;6.10;4.63;;;22.70;64.30;;;;;;5052055;28;20116;-75
2021/06/11 07:25:59;;;;;;;4.90;4.40;;;22.60;62.20;;;;;;5044475;28;20079;-75
2021/06/11 07:28:26;;;;;;;3.90;3.50;;;22.70;60.00;;;;;;5032906;28;20025;-75
2021/06/11 07:30:53;;;;;;;4.90;4.20;;;22.80;57.90;;;;;;5032757;28;20378;-75
2021/06/11 07:33:19;;;;;;;4.68;3.75;;;22.90;55.40;;;;;;5032853;28;20033;-75
2021/06/11 07:35:45;;;;;;;4.75;4.35;;;22.70;54.80;;;;;;5033264;28;20029;-75
2021/06/11 07:38:11;;;;;;;4.82;4.13;;;22.80;56.70;;;;;;5033385;28;20022;-76
2021/06/11 07:40:36;;;;;;;5.78;4.68;;;23.00;55.90;;;;;;5033256;28;20029;-76
2021/06/11 07:43:03;;;;;;;5.45;4.68;;;23.20;57.60;;;;;;5052262;28;20085;-76
2021/06/11 07:45:30;;;;;;;5.25;3.25;;;23.30;56.30;;;;;;5051822;28;20033;-76
2021/06/11 07:47:56;;;;;;;3.83;3.53;;;23.10;52.20;;;;;;5052794;28;20025;-75
2021/06/11 07:50:22;;;;;;;3.78;3.33;;;23.10;51.70;;;;;;5052631;28;20021;-75
2021/06/11 07:52:48;;;;;;;2.95;2.70;;;23.20;51.60;;;;;;5052984;28;20036;-76
2021/06/11 07:55:15;;;;;;;4.45;2.88;;;23.50;49.90;;;;;;5052803;28;20096;-76
2021/06/11 07:57:41;;;;;;;3.45;3.00;;;23.80;51.00;;;;;;5053032;28;20020;-75
2021/06/11 08:00:07;;;;;;;3.42;3.15;;;23.80;51.00;;;;;;5051593;28;20029;-76
2021/06/11 08:02:33;;;;;;;4.75;3.80;;;23.80;50.80;;;;;;5051729;28;20037;-75
2021/06/11 08:04:58;;;;;;;4.20;3.35;;;23.90;50.30;;;;;;5052462;28;20060;-76
2021/06/11 08:07:29;;;;;;;3.72;3.42;;;24.00;49.70;;;;;;5052900;28;20553;-75
2021/06/11 08:09:59;;;;;;;4.05;3.30;;;23.80;50.50;;;;;;5051142;28;20470;-75
2021/06/11 08:12:31;;;;;;;3.63;2.75;;;23.60;50.60;;;;;;5039283;28;20137;-76
2021/06/11 08:14:57;;;;;;;;;;;23.30;48.10;;;;;;5031901;28;20033;-76
2021/06/11 08:17:24;;;;;;;3.08;2.78;;;23.50;48.10;;;;;;5031601;28;19916;-76
2021/06/11 08:19:50;;;;;;;4.85;3.75;;;23.50;49.40;;;;;;5044253;28;20025;-76
2021/06/11 08:22:16;;;;;;;4.82;3.85;;;23.40;50.80;;;;;;5052433;28;20067;-76
2021/06/11 08:24:41;;;;;;;3.67;3.03;;;23.20;49.90;;;;;;5051357;28;20025;-75
2021/06/11 08:27:07;;;;;;;4.82;3.00;;;23.20;49.50;;;;;;5052667;28;20108;-75
2021/06/11 08:29:33;;;;;;;6.57;3.30;;;23.20;51.30;;;;;;5051363;28;20405;-76
2021/06/11 08:31:59;;;;;;;2.92;2.70;;;23.40;49.30;;;;;;5052446;28;20469;-76
2021/06/11 08:34:26;;;;;;;5.53;3.40;;;23.70;47.10;;;;;;5052639;28;20104;-76
2021/06/11 08:36:52;;;;;;;4.57;3.00;;;23.80;47.80;;;;;;5050881;28;20032;-75
2021/06/11 08:39:18;;;;;;;3.63;3.15;;;23.50;47.80;;;;;;5052552;28;20021;-75
2021/06/11 08:41:44;;;;;;;4.88;3.55;;;23.20;49.50;;;;;;5044985;28;20048;-76
2021/06/11 08:44:11;;;;;;;3.78;3.30;;;23.10;51.00;;;;;;5031320;28;20390;-76
2021/06/11 08:46:38;;;;;;;6.88;3.83;;;23.20;52.10;;;;;;5032763;28;20422;-76
2021/06/11 08:49:04;;;;;;;3.42;3.10;;;23.40;52.30;;;;;;5032508;28;20029;-76
2021/06/11 08:51:30;;;;;;;4.13;3.35;;;23.70;51.70;;;;;;5033581;28;20025;-76
2021/06/11 08:53:58;;;;;;;4.20;3.80;;;24.10;51.90;;;;;;5032286;28;20060;-76
2021/06/11 08:56:24;;;;;;;3.55;3.13;;;24.40;50.40;;;;;;5032548;28;20030;-76
2021/06/11 08:58:52;;;;;;;3.00;2.70;;;24.60;48.80;;;;;;5032469;28;20041;-76
2021/06/11 09:01:17;;;;;;;3.13;2.40;;;24.70;46.60;;;;;;5032439;28;20498;-76
2021/06/11 09:03:45;;;;;;;3.47;2.67;;;24.70;44.90;;;;;;5032411;28;20072;-76
2021/06/11 09:06:14;;;;;;;2.75;2.35;;;25.00;42.60;;;;;;5032423;28;20087;-76
2021/06/11 09:08:48;;;;;;;5.18;3.03;;;25.10;43.10;;;;;;5032335;28;20087;-76
2021/06/11 09:11:17;;;;;;;2.72;2.53;;;25.20;43.50;;;;;;5034133;28;20049;-76
2021/06/11 09:13:48;;;;;;;3.67;2.10;;;25.00;43.70;;;;;;5052165;28;20040;-75
2021/06/11 09:16:24;;;;;;;3.00;2.80;;;24.70;45.20;;;;;;5050999;28;20017;-76
2021/06/11 09:18:55;;;;;;;4.00;3.00;;;24.20;46.60;;;;;;5050883;28;20017;-76
2021/06/11 09:21:44;;;;;;;2.67;2.47;;;23.80;47.30;;;;;;5052494;28;20382;-76
2021/06/11 09:24:16;;;;;;;4.05;2.97;;;23.40;48.50;;;;;;5055164;28;20062;-76
2021/06/11 09:27:08;;;;;;;4.85;3.50;;;23.40;48.80;;;;;;5054507;28;20060;-76
2021/06/11 09:29:49;;;;;;;4.27;2.47;;;23.70;48.80;;;;;;5055801;28;20021;-76
2021/06/11 09:32:27;;;;;;;2.72;2.15;;;23.70;47.10;;;;;;5055312;28;20040;-76
2021/06/11 09:35:09;;;;;;;2.88;2.63;;;24.20;47.40;;;;;;5054202;28;20410;-76
2021/06/11 09:37:39;;;;;;;2.80;2.60;;;24.50;47.90;;;;;;5055754;28;20029;-76
2021/06/11 09:40:10;;;;;;;2.88;2.67;;;24.90;45.40;;;;;;5055359;28;20044;-75
2021/06/11 09:42:44;;;;;;;2.83;2.33;;;25.30;44.90;;;;;;5042889;28;20040;-76
2021/06/11 09:45:12;;;;;;;3.05;2.00;;;25.20;43.00;;;;;;5035734;28;20056;-76
2021/06/11 09:47:47;;;;;;;4.05;1.92;;;25.20;42.10;;;;;;5035552;28;20026;-75
2021/06/11 09:50:16;;;;;;;3.60;2.00;;;25.40;40.80;;;;;;5034139;28;20068;-75
2021/06/11 09:53:05;;;;;;;2.28;2.08;;;25.10;40.30;;;;;;5035325;28;20072;-76
2021/06/11 09:55:36;;;;;;;2.35;2.03;;;24.90;40.10;;;;;;5035264;28;20030;-76
2021/06/11 09:58:09;;;;;;;4.57;2.10;;;24.50;41.20;;;;;;5033948;28;20092;-76
2021/06/11 10:00:37;;;;;;;2.75;2.50;;;23.60;45.10;;;;;;5035254;28;20029;-76
2021/06/11 10:03:10;;;;;;;6.43;2.95;;;23.10;47.20;;;;;;5037413;28;20021;-77
2021/06/11 10:05:36;;;;;;;6.07;3.65;;;22.80;50.90;;;;;;5053838;28;20024;-76
2021/06/11 10:08:03;;;;;;;8.40;3.90;;;22.40;55.10;;;;;;5053605;28;20036;-76
2021/06/11 10:10:29;;;;;;;6.10;3.60;;;22.10;56.80;;;;;;5054803;28;20025;-76
2021/06/11 10:12:54;;;;;;;5.30;3.95;;;21.70;62.10;;;;;;5054381;28;20375;-76
2021/06/11 10:15:20;;;;;;;5.80;4.00;;;21.30;68.20;;;;;;5054893;28;20025;-76
2021/06/11 10:17:46;;;;;;;4.57;3.97;;;21.00;70.80;;;;;;5053203;28;20013;-76
2021/06/11 10:20:14;;;;;;;6.97;4.05;;;20.90;81.70;;;;;;5054042;28;20466;-76
2021/06/11 10:22:40;;;;;;;6.30;4.70;;;20.90;87.70;;;;;;5054083;28;20031;-76
2021/06/11 10:25:11;;;;;;;5.68;4.03;;;20.80;85.00;;;;;;5052667;28;20025;-76
2021/06/11 10:27:38;;;;;;;5.05;4.55;;;20.60;92.60;;;;;;5052632;28;20497;-76
2021/06/11 10:30:04;;;;;;;6.75;4.97;;;20.50;94.10;;;;;;5054268;28;20025;-76
2021/06/11 10:32:30;;;;;;;4.63;4.20;;;20.40;95.60;;;;;;5052878;28;20044;-77
2021/06/11 10:34:56;;;;;;;4.95;4.50;;;20.30;92.20;;;;;;5034152;28;20013;-77
2021/06/11 10:37:40;;;;;;;7.10;4.43;;;20.30;94.20;;;;;;5033162;28;20017;-76
2021/06/11 10:40:39;;;;;;;7.65;5.00;;;20.20;86.40;;;;;;5032955;28;20025;-76
2021/06/11 10:43:20;;;;;;;3.33;3.03;;;19.90;95.20;;;;;;5022235;28;20120;-76
2021/06/11 10:45:46;;;;;;;4.88;4.45;;;19.40;73.30;;;;;;5034389;28;20077;-77
2021/06/11 10:48:12;;;;;;;6.28;4.38;;;19.00;77.70;;;;;;5034293;28;20021;-77
2021/06/11 10:50:38;;;;;;;7.07;5.53;;;18.40;85.50;;;;;;5034296;28;20026;-77
2021/06/11 10:53:12;;;;;;;6.40;4.32;;;17.90;93.10;;;;;;5034087;28;20034;-77
2021/06/11 10:55:46;;;;;;;6.60;4.15;;;17.50;98.30;;;;;;5038219;28;20021;-77
2021/06/11 10:58:11;;;;;;;5.38;4.53;;;17.30;99.00;;;;;;5053006;28;20374;-76
2021/06/11 11:00:39;;;;;;;4.82;3.67;;;17.00;99.90;;;;;;5053971;28;20033;-77
2021/06/11 11:03:07;;;;;;;6.75;3.40;;;16.90;99.90;;;;;;5052626;28;20021;-77
2021/06/11 11:05:33;;;;;;;4.30;3.85;;;16.80;99.90;;;;;;5053923;28;20031;-76
2021/06/11 11:08:01;;;;;;;8.60;4.20;;;16.70;99.90;;;;;;5053846;28;20016;-77
2021/06/11 11:10:42;;;;;;;4.40;3.25;;;16.60;99.90;;;;;;5053883;28;20021;-76
2021/06/11 11:13:15;;;;;;;3.40;3.00;;;16.30;99.90;;;;;;5053712;28;20032;-76
2021/06/11 11:15:51;;;;;;;5.07;3.72;;;16.10;99.90;;;;;;5053547;28;20054;-76
2021/06/11 11:18:24;;;;;;;4.20;3.28;;;15.80;99.90;;;;;;5053765;28;20040;-77
2021/06/11 11:20:51;;;;;;;4.50;3.10;;;15.70;99.90;;;;;;5053635;28;20032;-77
2021/06/11 11:23:19;;;;;;;4.18;3.67;;;15.80;99.90;;;;;;5052307;28;20049;-76
2021/06/11 11:25:46;;;;;;;6.70;4.93;;;15.80;99.90;;;;;;5053493;28;20036;-76
2021/06/11 11:28:13;;;;;;;7.60;4.15;;;16.10;99.90;;;;;;5053181;28;20028;-77
2021/06/11 11:30:42;;;;;;;9.52;4.28;;;16.30;99.90;;;;;;5051972;28;20394;-77
2021/06/11 11:33:08;;;;;;;6.15;5.55;;;16.50;99.90;;;;;;5051790;28;20061;-77
2021/06/11 11:35:37;;;;;;;8.07;6.10;;;16.80;99.90;;;;;;5052128;28;20028;-77
2021/06/11 11:38:07;;;;;;;8.43;5.25;;;17.10;99.90;;;;;;5053260;28;20028;-76
2021/06/11 11:40:33;;;;;;;7.50;6.10;;;17.30;99.90;;;;;;5053343;28;20017;-76
2021/06/11 11:43:01;;;;;;;6.53;5.93;;;17.50;99.90;;;;;;5053149;28;20029;-77
2021/06/11 11:45:27;;;;;;;9.20;5.88;;;17.70;99.90;;;;;;5052934;28;20028;-77
2021/06/11 11:47:59;;;;;;;5.90;5.30;;;17.80;99.90;;;;;;5051837;28;20032;-77
2021/06/11 11:50:27;;;;;;;8.43;5.35;;;17.80;99.90;;;;;;5051793;28;20116;-76
2021/06/11 11:52:53;;;;;;;7.15;4.93;;;17.90;99.90;;;;;;5052820;28;20033;-76
2021/06/11 11:55:19;;;;;;;4.90;4.40;;;18.00;99.90;;;;;;5051799;28;20497;-77
2021/06/11 11:57:45;;;;;;;6.20;5.60;;;18.00;99.90;;;;;;5052996;28;20028;-77
2021/06/11 12:00:15;;;;;;;5.00;4.60;;;18.10;99.90;;;;;;5051461;28;20405;-77
2021/06/11 12:02:45;;;;;;;5.43;4.93;;;18.20;99.90;;;;;;5051381;28;20013;-77
2021/06/11 12:05:12;;;;;;;5.60;5.00;;;18.30;99.90;;;;;;5051217;28;20047;-77
2021/06/11 12:07:38;;;;;;;5.53;4.88;;;18.50;99.90;;;;;;5051696;28;20478;-77
2021/06/11 12:10:04;;;;;;;9.48;5.75;;;18.50;99.90;;;;;;5052430;28;20029;-77
2021/06/11 12:12:30;;;;;;;6.72;5.43;;;18.60;99.90;;;;;;5051529;28;20032;-77
2021/06/11 12:14:56;;;;;;;6.35;5.75;;;18.80;99.90;;;;;;5052697;28;20067;-77
2021/06/11 12:17:22;;;;;;;5.55;5.05;;;18.90;99.90;;;;;;5052473;28;20422;-77
2021/06/11 12:19:48;;;;;;;10.55;5.50;;;19.20;99.90;;;;;;5051396;28;20021;-77
2021/06/11 12:22:14;;;;;;;5.88;5.30;;;19.40;99.90;;;;;;5052719;28;20029;-77
2021/06/11 12:24:41;;;;;;;7.05;5.05;;;19.50;99.60;;;;;;5049695;28;20039;-77
2021/06/11 12:27:07;;;;;;;6.38;4.97;;;19.50;91.60;;;;;;5051362;28;20424;-77
2021/06/11 12:29:33;;;;;;;6.18;5.57;;;19.60;92.70;;;;;;5052681;28;20100;-77
2021/06/11 12:31:59;;;;;;;4.78;4.28;;;19.70;91.80;;;;;;5048671;28;20025;-77
2021/06/11 12:34:25;;;;;;;4.90;4.50;;;19.90;93.90;;;;;;5048469;28;20086;-77
2021/06/11 12:36:51;;;;;;;5.50;4.95;;;20.00;93.30;;;;;;5051561;28;20478;-77
2021/06/11 12:39:16;;;;;;;5.47;4.95;;;20.10;92.10;;;;;;5067235;28;20421;-77
2021/06/11 12:41:42;;;;;;;5.35;4.88;;;20.10;90.50;;;;;;5067289;28;20108;-77
2021/06/11 12:44:15;;;;;;;6.00;5.40;;;20.20;93.10;;;;;;5066441;28;20505;-77
2021/06/11 12:46:45;;;;;;;5.60;5.10;;;20.30;92.70;;;;;;5066758;28;20029;-77
2021/06/11 12:49:12;;;;;;;6.70;4.07;;;20.30;94.70;;;;;;5051957;28;20036;-77